Time;durP1;ratioP1;P1;durP2;ratioP2;P2;SDS_P1;SDS_P2;PMS_P1;PMS_P2;Temp;Humidity;BMP_temperature;BMP_pressure;BME280_temperature;BME280_humidity;BME280_pressure;Samples;Min_cycle;Max_cycle;Signal;HPM_P1;HPM_P2
2021/12/06 00:02:00;;;;;;;22.43;10.43;;;;;;;1.46;100.00;100146.56;5072767;28;20772;-78
2021/12/06 00:04:29;;;;;;;24.53;11.83;;;;;;;1.43;100.00;100152.44;5072732;28;20210;-78
2021/12/06 00:07:02;;;;;;;25.23;10.90;;;;;;;1.41;100.00;100151.88;5072548;28;20682;-77
2021/12/06 00:09:30;;;;;;;27.07;10.67;;;;;;;1.36;100.00;100158.03;5071106;28;20237;-77
2021/12/06 00:11:59;;;;;;;34.67;13.17;;;;;;;1.35;100.00;100166.38;5071340;28;20473;-77
2021/12/06 00:14:29;;;;;;;24.97;11.00;;;;;;;1.35;100.00;100161.00;5072528;28;20182;-77
2021/12/06 00:17:02;;;;;;;32.97;14.20;;;;;;;1.34;100.00;100162.88;5072446;28;20178;-77
2021/12/06 00:19:28;;;;;;;28.13;14.07;;;;;;;1.34;100.00;100170.94;5072487;28;20185;-77
2021/12/06 00:21:55;;;;;;;30.33;12.43;;;;;;;1.37;100.00;100172.31;5072281;28;20677;-77
2021/12/06 00:24:21;;;;;;;26.87;12.03;;;;;;;1.33;100.00;100163.13;5072477;28;20174;-77
2021/12/06 00:26:46;;;;;;;27.87;10.37;;;;;;;1.35;100.00;100172.56;5072423;28;20791;-77
2021/12/06 00:29:12;;;;;;;28.40;11.63;;;;;;;1.43;100.00;100182.84;5072290;28;20232;-77
2021/12/06 00:31:38;;;;;;;22.17;8.90;;;;;;;1.47;100.00;100185.84;5072581;28;20198;-77
2021/12/06 00:34:10;;;;;;;24.37;12.10;;;;;;;1.45;100.00;100185.31;5072258;28;20269;-77
2021/12/06 00:36:39;;;;;;;20.23;9.90;;;;;;;1.44;100.00;100187.16;5072020;28;20173;-77
2021/12/06 00:39:12;;;;;;;17.67;10.47;;;;;;;1.40;100.00;100185.25;5072107;28;20178;-77
2021/12/06 00:41:39;;;;;;;24.93;11.30;;;;;;;1.38;100.00;100193.56;5071863;28;20242;-78
2021/12/06 00:44:06;;;;;;;21.17;10.70;;;;;;;1.40;100.00;100196.00;5072013;28;20254;-77
2021/12/06 00:46:32;;;;;;;18.40;10.40;;;;;;;1.43;100.00;100206.25;5071773;28;20205;-77
2021/12/06 00:48:57;;;;;;;32.97;12.17;;;;;;;1.39;100.00;100211.34;5070577;28;20433;-78
2021/12/06 00:51:23;;;;;;;21.20;12.13;;;;;;;1.38;100.00;100208.91;5072188;28;20178;-78
2021/12/06 00:53:48;;;;;;;25.83;13.27;;;;;;;1.36;100.00;100211.06;5071750;28;20239;-77
2021/12/06 00:56:14;;;;;;;31.03;13.20;;;;;;;1.38;100.00;100217.81;5068825;28;20231;-77
2021/12/06 00:58:40;;;;;;;27.33;13.03;;;;;;;1.42;100.00;100226.16;5073501;28;20630;-77
2021/12/06 01:01:07;;;;;;;41.77;13.07;;;;;;;1.41;100.00;100222.66;5081778;28;20262;-78
2021/12/06 01:03:34;;;;;;;31.93;11.77;;;;;;;1.39;100.00;100229.38;5077955;28;20179;-78
2021/12/06 01:06:00;;;;;;;24.87;11.40;;;;;;;1.36;100.00;100224.50;5072714;28;20420;-78
2021/12/06 01:08:26;;;;;;;30.03;12.93;;;;;;;1.40;100.00;100239.06;5071406;28;20482;-77
2021/12/06 01:10:53;;;;;;;28.97;11.27;;;;;;;1.36;100.00;100243.34;5071571;28;20185;-78
2021/12/06 01:13:19;;;;;;;36.73;13.63;;;;;;;1.35;100.00;100244.41;5071496;28;20240;-77
2021/12/06 01:15:45;;;;;;;27.70;10.63;;;;;;;1.38;100.00;100243.91;5071379;28;20421;-78
2021/12/06 01:18:13;;;;;;;28.27;13.40;;;;;;;1.37;100.00;100253.03;5071490;28;20181;-77
2021/12/06 01:20:51;;;;;;;20.83;10.30;;;;;;;1.35;100.00;100260.56;5071253;28;20209;-77
2021/12/06 01:23:20;;;;;;;19.47;8.60;;;;;;;1.39;100.00;100254.41;5071166;28;20486;-78
2021/12/06 01:26:10;;;;;;;23.37;12.50;;;;;;;1.34;100.00;100251.69;5070999;28;20917;-77
2021/12/06 01:31:41;;;;;;;15.70;8.60;;;;;;;1.36;100.00;100262.19;5071159;28;20228;-78
2021/12/06 01:39:36;;;;;;;25.20;12.57;;;;;;;1.27;100.00;100261.81;5070952;28;20416;-77
2021/12/06 01:42:04;;;;;;;25.37;11.77;;;;;;;1.26;100.00;100262.09;5070532;28;20469;-78
2021/12/06 01:44:36;;;;;;;35.07;11.33;;;;;;;1.21;100.00;100267.44;5070792;28;20421;-77
2021/12/06 01:47:11;;;;;;;29.33;12.33;;;;;;;1.23;100.00;100268.78;5071042;28;20532;-78
2021/12/06 01:49:39;;;;;;;40.47;13.30;;;;;;;1.20;100.00;100258.53;5070797;28;20946;-78
2021/12/06 01:52:11;;;;;;;25.43;12.20;;;;;;;1.16;100.00;100260.94;5070887;28;20525;-78
2021/12/06 01:54:37;;;;;;;21.07;13.10;;;;;;;1.22;100.00;100250.22;5068978;28;20201;-78
2021/12/06 01:57:03;;;;;;;31.77;12.63;;;;;;;1.27;100.00;100255.63;5070665;28;20421;-78
2021/12/06 01:59:29;;;;;;;28.37;11.80;;;;;;;1.28;100.00;100278.78;5069132;28;20179;-78
2021/12/06 02:01:55;;;;;;;23.07;11.43;;;;;;;1.24;100.00;100272.28;5070626;28;20421;-77
2021/12/06 02:04:21;;;;;;;34.47;13.03;;;;;;;1.14;100.00;100270.28;5070556;28;20590;-77
2021/12/06 02:06:47;;;;;;;35.93;13.60;;;;;;;1.13;100.00;100274.06;5070427;28;20224;-77
2021/12/06 02:09:15;;;;;;;16.60;9.50;;;;;;;1.16;100.00;100268.19;5070392;28;20277;-77
2021/12/06 02:11:42;;;;;;;22.10;11.23;;;;;;;1.18;100.00;100277.63;5070643;28;20261;-77
2021/12/06 02:17:05;;;;;;;44.57;15.10;;;;;;;1.19;100.00;100275.75;5070599;28;20189;-78
2021/12/06 02:19:35;;;;;;;31.37;12.30;;;;;;;1.19;100.00;100281.94;5070421;28;20625;-77
2021/12/06 02:22:01;;;;;;;40.77;16.13;;;;;;;1.11;100.00;100282.38;5070404;28;20510;-77
2021/12/06 02:24:31;;;;;;;38.87;14.73;;;;;;;0.97;100.00;100283.84;5070542;28;20185;-78
2021/12/06 02:26:57;;;;;;;36.97;14.37;;;;;;;1.02;100.00;100283.91;5070263;28;20417;-77
2021/12/06 02:29:22;;;;;;;35.53;14.90;;;;;;;0.99;100.00;100284.41;5070770;28;20435;-77
2021/12/06 02:31:48;;;;;;;38.37;13.87;;;;;;;0.88;100.00;100296.94;5070494;28;20912;-77
2021/12/06 02:34:14;;;;;;;28.80;12.97;;;;;;;0.95;100.00;100293.22;5070755;28;20254;-78
2021/12/06 02:36:39;;;;;;;37.87;14.50;;;;;;;0.93;100.00;100292.66;5068870;28;20186;-77
2021/12/06 02:39:09;;;;;;;43.37;15.23;;;;;;;0.86;100.00;100290.16;5070355;28;20171;-78
2021/12/06 02:41:35;;;;;;;62.03;16.77;;;;;;;0.90;100.00;100299.38;5070219;28;20230;-78
2021/12/06 02:44:01;;;;;;;33.87;13.20;;;;;;;0.98;100.00;100306.16;5070317;28;20848;-77
2021/12/06 02:46:26;;;;;;;48.90;17.13;;;;;;;0.87;100.00;100303.38;5070107;28;20440;-78
2021/12/06 02:48:52;;;;;;;41.27;14.83;;;;;;;0.87;100.00;100316.81;5068750;28;20657;-77
2021/12/06 02:51:18;;;;;;;50.93;18.03;;;;;;;0.79;100.00;100316.44;5068924;28;20171;-77
2021/12/06 02:53:45;;;;;;;45.80;16.90;;;;;;;0.82;100.00;100319.44;5070584;28;20228;-77
2021/12/06 02:59:05;;;;;;;43.37;16.17;;;;;;;0.78;100.00;100312.13;5050050;28;20500;-77
2021/12/06 03:01:39;;;;;;;48.43;15.90;;;;;;;0.74;100.00;100313.69;5072570;28;20507;-78
2021/12/06 03:04:05;;;;;;;54.07;18.03;;;;;;;0.67;100.00;100313.06;5073972;28;20421;-77
2021/12/06 03:06:31;;;;;;;37.40;15.97;;;;;;;0.70;100.00;100320.63;5073661;28;20431;-77
2021/12/06 03:09:09;;;;;;;48.17;15.80;;;;;;;0.71;100.00;100325.75;5073527;28;20439;-77
2021/12/06 03:11:38;;;;;;;59.10;18.00;;;;;;;0.67;100.00;100321.94;5073780;28;20478;-77
2021/12/06 03:14:06;;;;;;;37.10;13.27;;;;;;;0.71;100.00;100330.31;5072271;28;20915;-77
2021/12/06 03:16:31;;;;;;;38.93;15.57;;;;;;;0.66;100.00;100332.94;5073480;28;20416;-77
2021/12/06 03:18:57;;;;;;;24.93;9.57;;;;;;;0.71;100.00;100333.00;5073552;28;20431;-78
2021/12/06 03:21:25;;;;;;;37.63;15.90;;;;;;;0.74;100.00;100336.03;5073539;28;20553;-78
2021/12/06 03:23:52;;;;;;;54.70;18.20;;;;;;;0.75;100.00;100345.72;5073276;28;20171;-77
2021/12/06 03:26:17;;;;;;;36.43;16.47;;;;;;;0.75;100.00;100356.47;5073280;28;20889;-77
2021/12/06 03:28:45;;;;;;;41.70;15.90;;;;;;;0.76;100.00;100354.59;5073742;28;20420;-78
2021/12/06 03:31:11;;;;;;;44.90;17.13;;;;;;;0.78;100.00;100352.47;5073440;28;20208;-77
2021/12/06 03:33:39;;;;;;;24.47;12.73;;;;;;;0.78;100.00;100349.78;5073399;28;20896;-77
2021/12/06 03:36:06;;;;;;;51.73;19.87;;;;;;;0.78;100.00;100357.84;5073237;28;20417;-78
2021/12/06 03:38:32;;;;;;;51.60;16.77;;;;;;;0.78;100.00;100349.78;5073162;28;20439;-77
2021/12/06 03:40:58;;;;;;;53.50;17.90;;;;;;;0.73;100.00;100342.47;5073100;28;20206;-77
2021/12/06 03:43:23;;;;;;;43.37;17.07;;;;;;;0.75;100.00;100334.13;5073100;28;20413;-77
2021/12/06 03:45:49;;;;;;;47.33;17.10;;;;;;;0.75;100.00;100339.53;5072962;28;20262;-78
2021/12/06 03:48:15;;;;;;;36.60;16.97;;;;;;;0.76;100.00;100341.97;5073368;28;20185;-77
2021/12/06 03:50:40;;;;;;;50.87;16.53;;;;;;;0.79;100.00;100349.53;5073041;28;20171;-78
2021/12/06 03:53:06;;;;;;;41.23;15.83;;;;;;;0.81;100.00;100354.66;5072930;28;20210;-77
2021/12/06 03:55:31;;;;;;;37.90;15.80;;;;;;;0.84;100.00;100348.75;5072718;28;20166;-77
2021/12/06 03:57:56;;;;;;;43.97;15.67;;;;;;;0.84;100.00;100364.91;5072961;28;20175;-78
2021/12/06 04:00:22;;;;;;;39.60;15.60;;;;;;;0.84;100.00;100364.91;5072748;28;20203;-77
2021/12/06 04:02:47;;;;;;;44.40;17.97;;;;;;;0.85;100.00;100370.03;5072796;28;20658;-77
2021/12/06 04:05:14;;;;;;;35.30;14.47;;;;;;;0.85;100.00;100372.72;5072065;28;20174;-77
2021/12/06 04:07:39;;;;;;;37.50;16.27;;;;;;;0.90;100.00;100382.75;5073005;28;20177;-77
2021/12/06 04:10:08;;;;;;;37.03;15.10;;;;;;;0.86;100.00;100368.16;5072584;28;20186;-77
2021/12/06 04:12:34;;;;;;;39.83;17.10;;;;;;;0.82;100.00;100377.78;5072634;28;20170;-77
2021/12/06 04:15:00;;;;;;;43.13;18.60;;;;;;;0.82;100.00;100389.34;5072355;28;20541;-76
2021/12/06 04:17:25;;;;;;;42.07;16.60;;;;;;;0.82;100.00;100383.16;5071253;28;20417;-77
2021/12/06 04:19:51;;;;;;;39.87;17.40;;;;;;;0.82;100.00;100393.91;5072399;28;20206;-77
2021/12/06 04:22:18;;;;;;;32.57;16.80;;;;;;;0.82;100.00;100392.03;5072426;28;20307;-77
2021/12/06 04:24:44;;;;;;;35.80;17.50;;;;;;;0.81;100.00;100395.78;5072189;28;20163;-77
2021/12/06 04:27:15;;;;;;;32.03;14.10;;;;;;;0.81;100.00;100394.97;5070874;28;20424;-77
2021/12/06 04:29:42;;;;;;;32.57;15.93;;;;;;;0.84;100.00;100389.09;5072340;28;20774;-77
2021/12/06 04:32:08;;;;;;;35.47;16.10;;;;;;;0.88;100.00;100392.94;5071963;28;20420;-76
2021/12/06 04:34:34;;;;;;;31.43;15.70;;;;;;;0.87;100.00;100396.69;5072237;28;20417;-77
2021/12/06 04:36:59;;;;;;;39.47;15.10;;;;;;;0.84;100.00;100395.28;5072146;28;20409;-77
2021/12/06 04:39:25;;;;;;;42.20;16.63;;;;;;;0.82;100.00;100394.72;5071927;28;20178;-77
2021/12/06 04:41:50;;;;;;;49.33;17.07;;;;;;;0.81;100.00;100406.53;5072091;28;20175;-77
2021/12/06 04:44:16;;;;;;;44.20;16.97;;;;;;;0.79;100.00;100395.22;5072018;28;20168;-77
2021/12/06 04:46:41;;;;;;;43.30;18.43;;;;;;;0.81;100.00;100403.03;5071700;28;20175;-77
2021/12/06 04:49:07;;;;;;;41.20;17.13;;;;;;;0.79;100.00;100405.97;5071874;28;20187;-77
2021/12/06 04:51:35;;;;;;;44.37;17.43;;;;;;;0.77;100.00;100402.72;5071861;28;20630;-78
2021/12/06 04:54:01;;;;;;;40.37;16.90;;;;;;;0.78;100.00;100414.31;5071661;28;20247;-77
2021/12/06 04:56:33;;;;;;;34.80;15.00;;;;;;;0.80;100.00;100415.69;5071335;28;20916;-77
2021/12/06 04:59:30;;;;;;;36.27;16.33;;;;;;;0.81;100.00;100408.41;5071648;28;20186;-77
2021/12/06 05:01:59;;;;;;;42.73;17.83;;;;;;;0.79;100.00;100416.75;5071454;28;20428;-77
2021/12/06 05:04:29;;;;;;;35.57;17.83;;;;;;;0.81;100.00;100394.97;5071592;28;20417;-77
2021/12/06 05:07:01;;;;;;;34.90;16.20;;;;;;;0.80;100.00;100417.56;5071933;28;20506;-77
2021/12/06 05:09:33;;;;;;;65.17;24.57;;;;;;;0.81;100.00;100419.19;5070518;28;20422;-76
2021/12/06 05:11:58;;;;;;;44.07;16.90;;;;;;;0.86;100.00;100432.69;5071526;28;20420;-78
2021/12/06 05:14:25;;;;;;;34.67;15.33;;;;;;;0.92;100.00;100426.34;5071462;28;20908;-77
2021/12/06 05:16:51;;;;;;;42.17;15.90;;;;;;;0.90;100.00;100436.53;5070558;28;20175;-77
2021/12/06 05:19:16;;;;;;;41.37;17.33;;;;;;;0.82;100.00;100440.44;5071164;28;20465;-77
2021/12/06 05:21:41;;;;;;;25.67;13.30;;;;;;;0.83;100.00;100447.44;5071587;28;20551;-78
2021/12/06 05:24:08;;;;;;;35.07;15.13;;;;;;;0.80;100.00;100434.50;5071302;28;20215;-76
2021/12/06 05:26:35;;;;;;;24.60;14.60;;;;;;;0.84;100.00;100445.56;5069774;28;20182;-76
2021/12/06 05:29:02;;;;;;;30.80;14.27;;;;;;;0.86;100.00;100444.25;5071190;28;20183;-77
2021/12/06 05:31:29;;;;;;;23.13;13.27;;;;;;;0.82;100.00;100456.56;5069756;28;20920;-75
2021/12/06 05:34:01;;;;;;;35.60;16.50;;;;;;;0.79;100.00;100459.75;5071426;28;20171;-76
2021/12/06 05:36:26;;;;;;;42.93;15.63;;;;;;;0.75;100.00;100452.44;5070839;28;20425;-75
2021/12/06 05:38:53;;;;;;;29.53;13.93;;;;;;;0.76;100.00;100451.38;5071632;28;20918;-76
2021/12/06 05:41:19;;;;;;;26.47;14.20;;;;;;;0.78;100.00;100451.94;5070979;28;20206;-76
2021/12/06 05:43:44;;;;;;;36.80;14.93;;;;;;;0.74;100.00;100448.94;5070894;28;20455;-77
2021/12/06 05:46:10;;;;;;;30.83;14.57;;;;;;;0.75;100.00;100469.38;5070660;28;20171;-76
2021/12/06 05:48:35;;;;;;;29.07;12.70;;;;;;;0.80;100.00;100474.84;5070789;28;20274;-75
2021/12/06 05:51:01;;;;;;;41.50;14.20;;;;;;;0.77;100.00;100469.97;5070933;28;20186;-75
2021/12/06 05:53:28;;;;;;;45.97;15.07;;;;;;;0.76;100.00;100475.59;5070798;28;20874;-78
2021/12/06 05:55:53;;;;;;;32.57;13.17;;;;;;;0.76;100.00;100478.28;5069078;28;20428;-77
2021/12/06 05:58:22;;;;;;;31.80;13.80;;;;;;;0.80;100.00;100493.66;5070671;28;20919;-76
2021/12/06 06:00:48;;;;;;;31.10;13.57;;;;;;;0.81;100.00;100489.91;5069364;28;20205;-76
2021/12/06 06:03:15;;;;;;;41.30;14.70;;;;;;;0.78;100.00;100493.09;5070632;28;20175;-75
2021/12/06 06:05:41;;;;;;;29.10;14.13;;;;;;;0.74;100.00;100480.41;5070704;28;20170;-76
2021/12/06 06:08:07;;;;;;;45.50;14.37;;;;;;;0.73;100.00;100498.41;5070674;28;20464;-75
2021/12/06 06:10:35;;;;;;;36.10;12.40;;;;;;;0.73;100.00;100494.91;5070354;28;20182;-78
2021/12/06 06:13:01;;;;;;;31.27;12.83;;;;;;;0.74;100.00;100493.84;5070611;28;20413;-78
2021/12/06 06:15:29;;;;;;;39.57;16.17;;;;;;;0.73;100.00;100495.72;5070230;28;20429;-78
2021/12/06 06:17:55;;;;;;;28.63;12.17;;;;;;;0.75;100.00;100490.09;5070550;28;20421;-78
2021/12/06 06:20:32;;;;;;;41.37;15.17;;;;;;;0.77;100.00;100504.09;5070548;28;20476;-74
2021/12/06 06:22:59;;;;;;;40.37;11.27;;;;;;;0.87;100.00;100502.38;5070528;28;20420;-76
2021/12/06 06:25:24;;;;;;;23.63;12.27;;;;;;;0.85;100.00;100498.28;5070721;28;20520;-76
2021/12/06 06:27:50;;;;;;;27.33;11.23;;;;;;;0.88;100.00;100508.56;5070444;28;20500;-75
2021/12/06 06:30:16;;;;;;;26.57;12.33;;;;;;;0.80;100.00;100506.28;5073221;28;20179;-75
2021/12/06 06:32:42;;;;;;;21.77;12.17;;;;;;;0.81;100.00;100510.59;5074297;28;20727;-75
2021/12/06 06:35:08;;;;;;;24.93;11.97;;;;;;;0.82;100.00;100517.59;5074095;28;20228;-75
2021/12/06 06:37:35;;;;;;;31.53;14.00;;;;;;;0.85;100.00;100515.25;5074382;28;20900;-75
2021/12/06 06:40:01;;;;;;;23.23;11.33;;;;;;;0.85;100.00;100514.44;5074430;28;20456;-75
2021/12/06 06:42:27;;;;;;;25.10;12.50;;;;;;;0.82;100.00;100518.44;5074240;28;20425;-75
2021/12/06 06:44:56;;;;;;;33.97;14.43;;;;;;;0.79;100.00;100507.34;5073915;28;20424;-76
2021/12/06 06:47:22;;;;;;;25.77;11.63;;;;;;;0.81;100.00;100527.56;5074460;28;20171;-75
2021/12/06 06:49:48;;;;;;;17.57;10.83;;;;;;;0.81;100.00;100527.56;5073905;28;20412;-76
2021/12/06 06:52:15;;;;;;;22.23;12.83;;;;;;;0.77;100.00;100529.13;5074656;28;20986;-76
2021/12/06 06:54:40;;;;;;;22.37;12.70;;;;;;;0.77;100.00;100536.38;5073767;28;20300;-75
2021/12/06 06:57:06;;;;;;;20.70;12.83;;;;;;;0.72;100.00;100541.63;5073793;28;20420;-76
2021/12/06 06:59:32;;;;;;;15.97;11.83;;;;;;;0.69;100.00;100544.81;5073781;28;20170;-76
2021/12/06 07:01:57;;;;;;;22.57;12.13;;;;;;;0.69;100.00;100545.63;5073746;28;20805;-76
2021/12/06 07:04:23;;;;;;;17.77;12.77;;;;;;;0.58;100.00;100535.78;5073841;28;20697;-76
2021/12/06 07:06:49;;;;;;;25.17;14.60;;;;;;;0.56;100.00;100535.19;5074011;28;20174;-76
2021/12/06 07:09:15;;;;;;;23.97;13.60;;;;;;;0.52;100.00;100542.94;5073524;28;20186;-76
2021/12/06 07:11:44;;;;;;;16.87;11.33;;;;;;;0.54;100.00;100540.00;5073660;28;20235;-76
2021/12/06 07:14:10;;;;;;;21.40;13.00;;;;;;;0.55;100.00;100544.31;5073647;28;20424;-76
2021/12/06 07:16:35;;;;;;;16.17;11.47;;;;;;;0.52;100.00;100553.69;5073307;28;20420;-75
2021/12/06 07:19:01;;;;;;;22.73;13.50;;;;;;;0.52;100.00;100559.06;5073550;28;20171;-75
2021/12/06 07:21:26;;;;;;;19.20;13.20;;;;;;;0.48;100.00;100549.03;5073466;28;20613;-77
2021/12/06 07:23:51;;;;;;;23.47;14.13;;;;;;;0.48;100.00;100557.09;5073319;28;20228;-76
2021/12/06 07:26:19;;;;;;;20.00;11.13;;;;;;;0.49;100.00;100548.81;5073195;28;20212;-75
2021/12/06 07:28:47;;;;;;;21.13;13.50;;;;;;;0.48;100.00;100557.94;5073299;28;20177;-76
2021/12/06 07:31:14;;;;;;;21.50;12.10;;;;;;;0.49;100.00;100564.94;5073112;28;20433;-76
2021/12/06 07:33:41;;;;;;;16.67;12.00;;;;;;;0.53;100.00;100563.38;5073577;28;20413;-76
2021/12/06 07:36:07;;;;;;;24.50;13.37;;;;;;;0.45;100.00;100560.28;5072990;28;20908;-76
2021/12/06 07:38:34;;;;;;;17.07;13.67;;;;;;;0.48;100.00;100562.47;5073203;28;20420;-77
2021/12/06 07:41:00;;;;;;;24.05;16.23;;;;;;;0.44;100.00;100556.78;5072011;28;20438;-80
2021/12/06 07:43:26;;;;;;;16.77;13.00;;;;;;;0.44;100.00;100564.84;5072998;28;20166;-76
2021/12/06 07:45:51;;;;;;;18.73;13.23;;;;;;;0.49;100.00;100566.81;5073254;28;20937;-77
2021/12/06 07:48:17;;;;;;;18.73;13.97;;;;;;;0.48;100.00;100576.75;5073547;28;20171;-77
2021/12/06 07:50:42;;;;;;;20.90;13.37;;;;;;;0.52;100.00;100564.44;5078593;28;20195;-76
2021/12/06 07:53:08;;;;;;;20.53;13.87;;;;;;;0.46;100.00;100576.16;5082212;28;20277;-76
2021/12/06 07:55:35;;;;;;;17.03;12.47;;;;;;;0.44;100.00;100564.03;5077636;28;20504;-76
2021/12/06 07:58:03;;;;;;;20.53;12.17;;;;;;;0.44;100.00;100564.84;5073945;28;20413;-76
2021/12/06 08:00:30;;;;;;;20.13;14.53;;;;;;;0.41;100.00;100565.31;5073006;28;20566;-76
2021/12/06 08:02:56;;;;;;;18.63;12.77;;;;;;;0.41;100.00;100551.88;5072889;28;20413;-76
2021/12/06 08:05:33;;;;;;;22.17;12.83;;;;;;;0.40;100.00;100558.31;5072924;28;20511;-76
2021/12/06 08:08:24;;;;;;;24.60;14.30;;;;;;;0.41;100.00;100559.13;5072870;28;20971;-76
2021/12/06 08:10:53;;;;;;;22.07;13.03;;;;;;;0.41;100.00;100565.31;5072888;28;20452;-76
2021/12/06 08:13:27;;;;;;;19.70;14.87;;;;;;;0.42;100.00;100561.56;5072726;28;20421;-76
2021/12/06 08:15:55;;;;;;;18.60;14.30;;;;;;;0.43;100.00;100565.06;5072718;28;20413;-76
2021/12/06 08:18:20;;;;;;;24.50;12.33;;;;;;;0.41;100.00;100559.94;5072741;28;20482;-76
2021/12/06 08:20:47;;;;;;;22.90;13.47;;;;;;;0.38;100.00;100552.34;5072577;28;20460;-76
2021/12/06 08:23:13;;;;;;;25.97;15.67;;;;;;;0.39;100.00;100571.97;5072860;28;20216;-77
2021/12/06 08:25:39;;;;;;;19.67;14.33;;;;;;;0.38;100.00;100559.59;5072498;28;20437;-76
2021/12/06 08:28:05;;;;;;;20.90;13.40;;;;;;;0.41;100.00;100562.63;5072682;28;20569;-77
2021/12/06 08:30:31;;;;;;;22.67;14.97;;;;;;;0.40;100.00;100561.00;5072611;28;20428;-77
2021/12/06 08:33:02;;;;;;;28.27;14.33;;;;;;;0.38;100.00;100557.72;5072360;28;20416;-76
2021/12/06 08:35:28;;;;;;;19.80;13.30;;;;;;;0.44;100.00;100570.22;5072147;28;20175;-77
2021/12/06 08:37:58;;;;;;;20.27;12.63;;;;;;;0.41;100.00;100561.81;5072335;28;20940;-77
2021/12/06 08:40:25;;;;;;;18.40;13.27;;;;;;;0.46;100.00;100567.28;5072079;28;20460;-77
2021/12/06 08:42:51;;;;;;;27.00;15.20;;;;;;;0.47;100.00;100566.22;5072142;28;20899;-77
2021/12/06 08:45:17;;;;;;;21.70;13.37;;;;;;;0.48;100.00;100568.69;5071879;28;20420;-76
2021/12/06 08:47:42;;;;;;;22.20;14.23;;;;;;;0.51;100.00;100570.88;5070689;28;20178;-71
2021/12/06 08:50:15;;;;;;;29.07;14.47;;;;;;;0.50;100.00;100569.25;5072143;28;20185;-76
2021/12/06 08:52:41;;;;;;;28.20;14.17;;;;;;;0.50;100.00;100569.25;5070942;28;20166;-77
2021/12/06 08:55:08;;;;;;;18.20;12.87;;;;;;;0.52;100.00;100567.13;5071698;28;20484;-77
2021/12/06 08:57:34;;;;;;;25.37;14.30;;;;;;;0.52;100.00;100564.44;5071847;28;20167;-77
2021/12/06 08:59:59;;;;;;;29.03;15.83;;;;;;;0.46;100.00;100565.41;5071660;28;20499;-77
2021/12/06 09:02:25;;;;;;;21.87;12.53;;;;;;;0.54;100.00;100564.19;5071784;28;20486;-76
2021/12/06 09:04:50;;;;;;;25.13;13.77;;;;;;;0.52;100.00;100561.75;5071465;28;20178;-77
2021/12/06 09:07:16;;;;;;;14.33;11.97;;;;;;;0.59;100.00;100558.94;5071532;28;20274;-77
2021/12/06 09:09:48;;;;;;;31.37;15.97;;;;;;;0.65;100.00;100557.94;5071527;28;20232;-75
2021/12/06 09:12:21;;;;;;;27.80;14.23;;;;;;;0.56;100.00;100559.38;5071859;28;20163;-77
2021/12/06 09:14:48;;;;;;;24.63;14.50;;;;;;;0.59;100.00;100562.44;5071457;28;20459;-77
2021/12/06 09:17:14;;;;;;;21.57;12.50;;;;;;;0.57;100.00;100559.13;5071405;28;20413;-77
2021/12/06 09:19:40;;;;;;;17.57;13.67;;;;;;;0.61;100.00;100553.31;5071330;28;20412;-77
2021/12/06 09:22:06;;;;;;;18.13;12.37;;;;;;;0.66;100.00;100567.63;5071651;28;20783;-77
2021/12/06 09:24:32;;;;;;;23.53;13.50;;;;;;;0.65;100.00;100562.50;5071345;28;20417;-76
2021/12/06 09:26:58;;;;;;;27.00;13.73;;;;;;;0.61;100.00;100564.06;5071305;28;20174;-77
2021/12/06 09:29:24;;;;;;;29.43;14.33;;;;;;;0.57;100.00;100547.56;5071272;28;20253;-76
2021/12/06 09:31:52;;;;;;;26.07;14.13;;;;;;;0.56;100.00;100549.44;5071274;28;20167;-77
2021/12/06 09:34:18;;;;;;;28.53;16.70;;;;;;;0.59;100.00;100554.38;5071063;28;20443;-76
2021/12/06 09:36:44;;;;;;;21.47;14.07;;;;;;;0.61;100.00;100559.50;5070973;28;20939;-77
2021/12/06 09:39:10;;;;;;;19.57;11.87;;;;;;;0.64;100.00;100547.44;5071130;28;20186;-76
2021/12/06 09:41:35;;;;;;;23.53;14.43;;;;;;;0.64;100.00;100550.13;5071229;28;20687;-77
2021/12/06 09:44:04;;;;;;;27.77;13.37;;;;;;;0.62;100.00;100544.19;5071030;28;20492;-77
2021/12/06 09:46:34;;;;;;;17.87;11.40;;;;;;;0.70;100.00;100560.72;5070855;28;20174;-77
2021/12/06 09:49:03;;;;;;;22.60;11.87;;;;;;;0.78;100.00;100551.44;5071383;28;20453;-76
2021/12/06 09:51:28;;;;;;;19.07;13.17;;;;;;;0.80;100.00;100555.50;5069721;28;20420;-77
2021/12/06 09:53:56;;;;;;;27.87;14.60;;;;;;;0.76;100.00;100553.56;5070902;28;20427;-76
2021/12/06 09:56:28;;;;;;;14.57;11.67;;;;;;;0.79;100.00;100545.00;5069152;28;20200;-76
2021/12/06 09:58:55;;;;;;;25.63;13.27;;;;;;;0.83;100.00;100549.63;5069271;28;20423;-76
2021/12/06 10:01:24;;;;;;;21.13;14.10;;;;;;;0.86;100.00;100546.44;5071138;28;20460;-76
2021/12/06 10:03:53;;;;;;;20.83;11.23;;;;;;;0.82;100.00;100542.63;5070430;28;20423;-76
2021/12/06 10:06:21;;;;;;;16.23;10.30;;;;;;;0.83;100.00;100546.94;5070590;28;20413;-75
2021/12/06 10:08:51;;;;;;;17.63;12.47;;;;;;;0.90;100.00;100546.78;5070557;28;20542;-75
2021/12/06 10:11:19;;;;;;;18.00;11.60;;;;;;;0.87;100.00;100542.72;5070739;28;20917;-83
2021/12/06 10:13:45;;;;;;;17.50;12.20;;;;;;;0.87;100.00;100547.28;5070754;28;20453;-82
2021/12/06 10:16:11;;;;;;;15.47;11.50;;;;;;;0.82;100.00;100555.25;5070561;28;20460;-79
2021/12/06 10:18:38;;;;;;;23.30;13.37;;;;;;;0.81;100.00;100545.56;5070641;28;20174;-75
2021/12/06 10:21:04;;;;;;;21.73;12.00;;;;;;;0.84;100.00;100553.94;5070582;28;20468;-76
2021/12/06 10:23:30;;;;;;;18.37;10.87;;;;;;;0.87;100.00;100547.28;5070548;28;20934;-76
2021/12/06 10:25:56;;;;;;;18.87;11.70;;;;;;;0.94;100.00;100564.06;5070261;28;20417;-76
2021/12/06 10:28:27;;;;;;;13.83;10.43;;;;;;;0.98;100.00;100559.81;5070471;28;20417;-75
2021/12/06 10:30:56;;;;;;;15.50;12.33;;;;;;;0.95;100.00;100565.69;5070621;28;20270;-77
2021/12/06 10:33:26;;;;;;;14.30;10.60;;;;;;;1.02;100.00;100560.16;5069121;28;20409;-77
2021/12/06 10:35:57;;;;;;;18.27;11.23;;;;;;;0.98;100.00;100556.31;5070873;28;20556;-77
2021/12/06 10:38:26;;;;;;;16.23;11.57;;;;;;;0.99;100.00;100560.63;5070456;28;20175;-76
2021/12/06 10:40:57;;;;;;;15.50;10.67;;;;;;;1.07;100.00;100554.84;5070376;28;21061;-77
2021/12/06 10:43:23;;;;;;;17.67;10.97;;;;;;;1.05;100.00;100548.91;5071090;28;20167;-77
2021/12/06 10:45:49;;;;;;;17.70;11.03;;;;;;;1.08;100.00;100543.03;5070194;28;20527;-77
2021/12/06 10:48:26;;;;;;;18.07;12.50;;;;;;;1.09;100.00;100563.50;5070433;28;20179;-75
2021/12/06 10:50:51;;;;;;;17.23;11.33;;;;;;;1.13;100.00;100560.06;5070248;28;20201;-75
2021/12/06 10:53:26;;;;;;;15.40;11.23;;;;;;;1.13;100.00;100543.09;5070386;28;20503;-77
2021/12/06 10:55:55;;;;;;;16.60;10.57;;;;;;;1.08;100.00;100548.41;5069935;28;20174;-76
2021/12/06 10:58:24;;;;;;;23.73;12.97;;;;;;;1.04;100.00;100547.28;5070257;28;20511;-80
2021/12/06 11:00:56;;;;;;;16.50;10.33;;;;;;;1.10;100.00;100541.72;5070072;28;20456;-76
2021/12/06 11:03:47;;;;;;;18.80;10.67;;;;;;;1.20;100.00;100549.13;5070218;28;20549;-77
2021/12/06 11:06:21;;;;;;;20.50;12.30;;;;;;;1.25;100.00;100548.38;5068740;28;20178;-75
2021/12/06 11:08:53;;;;;;;14.03;11.77;;;;;;;1.32;100.00;100535.59;5068783;28;20194;-75
2021/12/06 11:11:31;;;;;;;17.30;10.57;;;;;;;1.41;100.00;100536.75;5070373;28;20179;-74
2021/12/06 11:14:12;;;;;;;19.63;9.87;;;;;;;1.44;100.00;100534.38;5070025;28;20408;-74
2021/12/06 11:16:44;;;;;;;18.40;11.03;;;;;;;1.20;100.00;100516.84;5072653;28;20273;-72
2021/12/06 11:19:18;;;;;;;24.03;13.10;;;;;;;1.21;100.00;100513.09;5073673;28;20416;-77
2021/12/06 11:21:47;;;;;;;20.43;11.93;;;;;;;1.22;100.00;100506.66;5073559;28;20209;-76
2021/12/06 11:24:13;;;;;;;21.23;12.00;;;;;;;1.17;100.00;100504.72;5073429;28;20670;-72
2021/12/06 11:26:59;;;;;;;15.07;11.60;;;;;;;1.23;100.00;100508.28;5073336;28;20405;-74